Terminal Aerodrome Forecast
Issued by NWS

Home | Current Version | Previous Version | Text Only | Print | Product List | Glossary On
Versions: 1 2 3 4 5 6 7 8 9 10 11 12 13 14
000
FTUS44 KTSA 261137
TAFBVO
TAF
KBVO 261137Z 2612/2712 VRB03KT P6SM SCT012 SCT040 BKN100
      TEMPO 2612/2614 BKN012
     FM261500 08006KT P6SM VCTS BKN060CB
     FM270000 VRB03KT P6SM BKN100 PROB30 2700/2704 4SM TSRA
      BKN050CB=

USA.gov is the U.S. government's official web portal to all federal, state and local government web resources and services.